sensor_id;sensor_type;location;lat;lon;timestamp;pressure;altitude;pressure_sealevel;temperature;humidity
35888;BME280;21990;42.540;23.496;2023-04-02T00:09:23;92635.97;;;5.55;80.95
35888;BME280;21990;42.540;23.496;2023-04-02T00:11:49;92629.91;;;5.51;81.38
35888;BME280;21990;42.540;23.496;2023-04-02T00:14:32;92624.75;;;5.31;82.13
35888;BME280;21990;42.540;23.496;2023-04-02T00:17:02;92613.63;;;5.25;82.00
35888;BME280;21990;42.540;23.496;2023-04-02T00:19:40;92619.22;;;5.25;82.00
35888;BME280;21990;42.540;23.496;2023-04-02T00:22:13;92608.97;;;5.09;82.47
35888;BME280;21990;42.540;23.496;2023-04-02T00:24:40;92604.88;;;5.10;81.93
35888;BME280;21990;42.540;23.496;2023-04-02T00:27:10;92606.19;;;5.09;82.83
35888;BME280;21990;42.540;23.496;2023-04-02T00:29:49;92601.16;;;5.02;82.79
35888;BME280;21990;42.540;23.496;2023-04-02T00:32:27;92598.53;;;4.80;83.11
35888;BME280;21990;42.540;23.496;2023-04-02T00:34:54;92605.19;;;4.71;83.11
35888;BME280;21990;42.540;23.496;2023-04-02T00:37:22;92606.16;;;4.44;84.90
35888;BME280;21990;42.540;23.496;2023-04-02T00:40:06;92602.56;;;4.49;84.71
35888;BME280;21990;42.540;23.496;2023-04-02T00:42:34;92613.28;;;4.40;84.94
35888;BME280;21990;42.540;23.496;2023-04-02T00:45:09;92604.44;;;4.36;85.33
35888;BME280;21990;42.540;23.496;2023-04-02T00:47:43;92614.78;;;4.41;85.30
35888;BME280;21990;42.540;23.496;2023-04-02T00:52:40;92621.41;;;4.38;85.10
35888;BME280;21990;42.540;23.496;2023-04-02T00:55:34;92622.94;;;4.39;84.50
35888;BME280;21990;42.540;23.496;2023-04-02T00:58:01;92613.38;;;4.23;85.22
35888;BME280;21990;42.540;23.496;2023-04-02T01:05:45;92617.22;;;4.14;85.48
35888;BME280;21990;42.540;23.496;2023-04-02T01:08:37;92625.66;;;4.03;86.61
35888;BME280;21990;42.540;23.496;2023-04-02T01:16:48;92619.59;;;3.94;87.59
35888;BME280;21990;42.540;23.496;2023-04-02T01:19:44;92620.09;;;3.98;87.46
35888;BME280;21990;42.540;23.496;2023-04-02T01:25:59;92619.63;;;3.88;87.51
35888;BME280;21990;42.540;23.496;2023-04-02T01:31:20;92629.75;;;3.91;86.35
35888;BME280;21990;42.540;23.496;2023-04-02T01:33:46;92627.44;;;4.01;86.71
35888;BME280;21990;42.540;23.496;2023-04-02T01:44:25;92620.63;;;3.91;87.15
35888;BME280;21990;42.540;23.496;2023-04-02T01:46:53;92625.97;;;3.83;87.11
35888;BME280;21990;42.540;23.496;2023-04-02T01:49:23;92635.09;;;3.83;87.15
35888;BME280;21990;42.540;23.496;2023-04-02T01:51:53;92634.59;;;3.85;86.74
35888;BME280;21990;42.540;23.496;2023-04-02T01:54:21;92634.34;;;3.83;87.18
35888;BME280;21990;42.540;23.496;2023-04-02T01:56:49;92641.47;;;3.73;87.28
35888;BME280;21990;42.540;23.496;2023-04-02T01:59:20;92643.81;;;3.58;87.89
35888;BME280;21990;42.540;23.496;2023-04-02T02:02:09;92649.34;;;3.69;88.07
35888;BME280;21990;42.540;23.496;2023-04-02T02:04:35;92636.66;;;3.68;87.91
35888;BME280;21990;42.540;23.496;2023-04-02T02:07:02;92639.69;;;3.70;87.97
35888;BME280;21990;42.540;23.496;2023-04-02T02:09:34;92636.16;;;3.69;87.89
35888;BME280;21990;42.540;23.496;2023-04-02T02:12:02;92639.19;;;3.71;87.87
35888;BME280;21990;42.540;23.496;2023-04-02T02:14:29;92641.97;;;3.71;87.85
35888;BME280;21990;42.540;23.496;2023-04-02T02:17:00;92645.75;;;3.74;87.67
35888;BME280;21990;42.540;23.496;2023-04-02T02:19:31;92648.03;;;3.70;88.03
35888;BME280;21990;42.540;23.496;2023-04-02T02:24:42;92639.44;;;3.73;88.15
35888;BME280;21990;42.540;23.496;2023-04-02T02:29:55;92644.75;;;3.71;87.95
35888;BME280;21990;42.540;23.496;2023-04-02T02:32:44;92644.25;;;3.73;87.83
35888;BME280;21990;42.540;23.496;2023-04-02T02:35:19;92640.94;;;3.80;87.49
35888;BME280;21990;42.540;23.496;2023-04-02T02:37:51;92646.53;;;3.74;87.49
35888;BME280;21990;42.540;23.496;2023-04-02T02:40:25;92636.88;;;3.81;87.57
35888;BME280;21990;42.540;23.496;2023-04-02T02:43:00;92636.41;;;3.77;87.47
35888;BME280;21990;42.540;23.496;2023-04-02T02:45:32;92637.66;;;3.76;87.97
35888;BME280;21990;42.540;23.496;2023-04-02T02:48:01;92641.22;;;3.71;88.38
35888;BME280;21990;42.540;23.496;2023-04-02T02:50:29;92637.44;;;3.68;88.24
35888;BME280;21990;42.540;23.496;2023-04-02T02:52:58;92630.09;;;3.65;88.34
35888;BME280;21990;42.540;23.496;2023-04-02T02:55:29;92625.25;;;3.71;88.20
35888;BME280;21990;42.540;23.496;2023-04-02T02:58:09;92626.78;;;3.67;88.39
35888;BME280;21990;42.540;23.496;2023-04-02T03:00:37;92640.50;;;3.59;89.06
35888;BME280;21990;42.540;23.496;2023-04-02T03:03:07;92633.91;;;3.51;89.12
35888;BME280;21990;42.540;23.496;2023-04-02T03:05:34;92645.06;;;3.51;89.31
35888;BME280;21990;42.540;23.496;2023-04-02T03:08:01;92645.59;;;3.50;89.19
35888;BME280;21990;42.540;23.496;2023-04-02T03:10:43;92653.19;;;3.49;89.29
35888;BME280;21990;42.540;23.496;2023-04-02T03:13:27;92644.56;;;3.53;89.40
35888;BME280;21990;42.540;23.496;2023-04-02T03:16:08;92649.13;;;3.45;89.45
35888;BME280;21990;42.540;23.496;2023-04-02T03:23:46;92648.88;;;3.54;89.28
35888;BME280;21990;42.540;23.496;2023-04-02T03:28:49;92642.28;;;3.57;88.68
35888;BME280;21990;42.540;23.496;2023-04-02T03:31:30;92650.41;;;3.49;88.95
35888;BME280;21990;42.540;23.496;2023-04-02T03:34:04;92657.72;;;3.47;89.56
35888;BME280;21990;42.540;23.496;2023-04-02T03:36:39;92654.22;;;3.46;89.41
35888;BME280;21990;42.540;23.496;2023-04-02T03:42:12;92665.84;;;3.39;89.39
35888;BME280;21990;42.540;23.496;2023-04-02T03:47:16;92658.28;;;3.23;89.97
35888;BME280;21990;42.540;23.496;2023-04-02T03:49:55;92657.75;;;3.24;89.90
35888;BME280;21990;42.540;23.496;2023-04-02T03:52:28;92652.69;;;3.28;89.52
35888;BME280;21990;42.540;23.496;2023-04-02T03:54:56;92656.00;;;3.32;89.08
35888;BME280;21990;42.540;23.496;2023-04-02T03:57:50;92667.38;;;3.29;88.71
35888;BME280;21990;42.540;23.496;2023-04-02T04:03:36;92679.03;;;3.11;90.02
35888;BME280;21990;42.540;23.496;2023-04-02T04:09:27;92682.06;;;2.96;90.15
35888;BME280;21990;42.540;23.496;2023-04-02T04:12:06;92686.13;;;2.90;90.26
35888;BME280;21990;42.540;23.496;2023-04-02T04:14:36;92683.59;;;2.97;90.12
35888;BME280;21990;42.540;23.496;2023-04-02T04:19:46;92695.47;;;2.98;90.09
35888;BME280;21990;42.540;23.496;2023-04-02T04:22:24;92683.31;;;2.90;89.78
35888;BME280;21990;42.540;23.496;2023-04-02T04:24:56;92701.53;;;2.96;89.78
35888;BME280;21990;42.540;23.496;2023-04-02T04:27:36;92694.72;;;2.97;89.53
35888;BME280;21990;42.540;23.496;2023-04-02T04:30:15;92691.16;;;2.97;89.34
35888;BME280;21990;42.540;23.496;2023-04-02T04:32:47;92695.72;;;2.94;88.67
35888;BME280;21990;42.540;23.496;2023-04-02T04:35:25;92693.69;;;3.00;88.71
35888;BME280;21990;42.540;23.496;2023-04-02T04:38:02;92704.84;;;2.83;88.86
35888;BME280;21990;42.540;23.496;2023-04-02T04:40:35;92711.38;;;2.80;89.03
35888;BME280;21990;42.540;23.496;2023-04-02T04:43:06;92706.34;;;2.90;89.56
35888;BME280;21990;42.540;23.496;2023-04-02T04:48:03;92696.72;;;2.85;89.63
35888;BME280;21990;42.540;23.496;2023-04-02T04:53:19;92706.59;;;2.86;90.29
35888;BME280;21990;42.540;23.496;2023-04-02T04:55:47;92703.56;;;2.90;90.65
35888;BME280;21990;42.540;23.496;2023-04-02T05:01:44;92701.28;;;3.00;91.45
35888;BME280;21990;42.540;23.496;2023-04-02T05:07:02;92697.00;;;3.21;91.81
35888;BME280;21990;42.540;23.496;2023-04-02T05:09:38;92698.25;;;3.42;92.19
35888;BME280;21990;42.540;23.496;2023-04-02T05:14:43;92691.31;;;3.82;91.67
35888;BME280;21990;42.540;23.496;2023-04-02T05:17:32;92696.63;;;3.97;90.04
35888;BME280;21990;42.540;23.496;2023-04-02T05:20:33;92699.66;;;3.99;89.54
35888;BME280;21990;42.540;23.496;2023-04-02T05:23:21;92706.38;;;4.25;90.71
35888;BME280;21990;42.540;23.496;2023-04-02T05:25:57;92703.00;;;4.44;89.71
35888;BME280;21990;42.540;23.496;2023-04-02T05:28:33;92705.00;;;4.54;87.24
35888;BME280;21990;42.540;23.496;2023-04-02T05:31:11;92711.50;;;4.73;90.47
35888;BME280;21990;42.540;23.496;2023-04-02T05:33:44;92702.75;;;5.29;88.46
35888;BME280;21990;42.540;23.496;2023-04-02T05:36:21;92703.13;;;5.44;84.68
35888;BME280;21990;42.540;23.496;2023-04-02T05:38:48;92709.41;;;5.50;86.36
35888;BME280;21990;42.540;23.496;2023-04-02T05:41:25;92701.19;;;5.63;86.00
35888;BME280;21990;42.540;23.496;2023-04-02T05:46:30;92716.69;;;6.80;89.63
35888;BME280;21990;42.540;23.496;2023-04-02T05:48:58;92714.03;;;7.57;85.84
35888;BME280;21990;42.540;23.496;2023-04-02T05:51:41;92712.47;;;8.46;83.15
35888;BME280;21990;42.540;23.496;2023-04-02T05:54:25;92704.88;;;10.02;79.54
35888;BME280;21990;42.540;23.496;2023-04-02T05:57:01;92726.63;;;10.79;75.71
35888;BME280;21990;42.540;23.496;2023-04-02T05:59:35;92705.69;;;11.39;74.76
35888;BME280;21990;42.540;23.496;2023-04-02T06:07:22;92713.91;;;12.87;67.99
35888;BME280;21990;42.540;23.496;2023-04-02T06:09:53;92710.88;;;13.47;61.01
35888;BME280;21990;42.540;23.496;2023-04-02T06:12:48;92717.41;;;13.25;60.16
35888;BME280;21990;42.540;23.496;2023-04-02T06:15:18;92715.38;;;13.58;62.74
35888;BME280;21990;42.540;23.496;2023-04-02T06:17:58;92707.84;;;13.85;61.30
35888;BME280;21990;42.540;23.496;2023-04-02T06:20:24;92703.78;;;14.36;61.29
35888;BME280;21990;42.540;23.496;2023-04-02T06:22:54;92707.53;;;14.80;55.51
35888;BME280;21990;42.540;23.496;2023-04-02T06:27:53;92698.81;;;14.86;56.67
35888;BME280;21990;42.540;23.496;2023-04-02T06:30:31;92701.34;;;14.57;55.49
35888;BME280;21990;42.540;23.496;2023-04-02T06:32:57;92698.94;;;14.21;58.03
35888;BME280;21990;42.540;23.496;2023-04-02T06:35:23;92699.56;;;13.87;54.50
35888;BME280;21990;42.540;23.496;2023-04-02T06:37:52;92713.22;;;13.34;56.37
35888;BME280;21990;42.540;23.496;2023-04-02T06:40:49;92717.59;;;13.19;57.18
35888;BME280;21990;42.540;23.496;2023-04-02T06:45:53;92703.56;;;14.09;59.77
35888;BME280;21990;42.540;23.496;2023-04-02T06:48:20;92706.28;;;14.73;57.77
35888;BME280;21990;42.540;23.496;2023-04-02T06:50:54;92706.34;;;15.08;58.20
35888;BME280;21990;42.540;23.496;2023-04-02T06:53:28;92702.16;;;15.43;57.32
35888;BME280;21990;42.540;23.496;2023-04-02T06:58:52;92700.19;;;16.70;58.60
35888;BME280;21990;42.540;23.496;2023-04-02T07:01:22;92708.44;;;17.50;55.58
35888;BME280;21990;42.540;23.496;2023-04-02T07:03:49;92701.69;;;17.84;48.50
35888;BME280;21990;42.540;23.496;2023-04-02T07:06:17;92696.28;;;17.79;51.67
35888;BME280;21990;42.540;23.496;2023-04-02T07:08:43;92704.69;;;17.67;49.29
35888;BME280;21990;42.540;23.496;2023-04-02T07:11:18;92707.84;;;17.71;49.65
35888;BME280;21990;42.540;23.496;2023-04-02T07:13:45;92714.09;;;17.22;49.11
35888;BME280;21990;42.540;23.496;2023-04-02T07:16:16;92717.38;;;17.08;50.43
35888;BME280;21990;42.540;23.496;2023-04-02T07:18:42;92713.41;;;16.85;48.50
35888;BME280;21990;42.540;23.496;2023-04-02T07:21:08;92721.72;;;17.00;51.69
35888;BME280;21990;42.540;23.496;2023-04-02T07:23:33;92715.31;;;17.38;49.14
35888;BME280;21990;42.540;23.496;2023-04-02T07:25:59;92723.56;;;17.34;49.04
35888;BME280;21990;42.540;23.496;2023-04-02T07:28:27;92713.22;;;17.38;47.42
35888;BME280;21990;42.540;23.496;2023-04-02T07:30:54;92717.69;;;17.13;49.12
35888;BME280;21990;42.540;23.496;2023-04-02T07:33:23;92728.41;;;16.85;49.62
35888;BME280;21990;42.540;23.496;2023-04-02T07:35:51;92725.41;;;16.83;48.77
35888;BME280;21990;42.540;23.496;2023-04-02T07:38:17;92721.31;;;16.40;51.29
35888;BME280;21990;42.540;23.496;2023-04-02T07:40:43;92724.44;;;16.35;49.65
35888;BME280;21990;42.540;23.496;2023-04-02T07:43:09;92730.19;;;16.54;51.14
35888;BME280;21990;42.540;23.496;2023-04-02T07:45:35;92725.22;;;16.72;51.46
35888;BME280;21990;42.540;23.496;2023-04-02T07:50:31;92716.50;;;16.60;49.20
35888;BME280;21990;42.540;23.496;2023-04-02T07:52:56;92718.94;;;16.46;47.86
35888;BME280;21990;42.540;23.496;2023-04-02T07:55:22;92718.47;;;16.40;48.02
35888;BME280;21990;42.540;23.496;2023-04-02T07:57:50;92724.22;;;16.23;48.76
35888;BME280;21990;42.540;23.496;2023-04-02T08:00:17;92723.16;;;16.19;48.89
35888;BME280;21990;42.540;23.496;2023-04-02T08:02:42;92723.16;;;16.19;49.28
35888;BME280;21990;42.540;23.496;2023-04-02T08:05:09;92723.69;;;16.07;48.89
35888;BME280;21990;42.540;23.496;2023-04-02T08:07:35;92728.25;;;15.93;47.97
35888;BME280;21990;42.540;23.496;2023-04-02T08:10:02;92720.03;;;15.53;48.39
35888;BME280;21990;42.540;23.496;2023-04-02T08:12:28;92722.72;;;15.51;49.70
35888;BME280;21990;42.540;23.496;2023-04-02T08:14:54;92726.88;;;15.50;50.30
35888;BME280;21990;42.540;23.496;2023-04-02T08:17:20;92734.31;;;15.63;50.89
35888;BME280;21990;42.540;23.496;2023-04-02T08:19:45;92732.63;;;15.77;50.89
35888;BME280;21990;42.540;23.496;2023-04-02T08:22:11;92730.56;;;16.04;50.11
35888;BME280;21990;42.540;23.496;2023-04-02T08:24:37;92729.16;;;16.23;53.25
35888;BME280;21990;42.540;23.496;2023-04-02T08:27:03;92725.63;;;16.32;47.37
35888;BME280;21990;42.540;23.496;2023-04-02T08:29:29;92728.84;;;16.45;49.69
35888;BME280;21990;42.540;23.496;2023-04-02T08:32:00;92735.31;;;16.55;49.82
35888;BME280;21990;42.540;23.496;2023-04-02T08:34:26;92733.88;;;16.64;50.74
35888;BME280;21990;42.540;23.496;2023-04-02T08:36:56;92731.63;;;16.63;50.16
35888;BME280;21990;42.540;23.496;2023-04-02T08:39:24;92739.75;;;16.76;48.21
35888;BME280;21990;42.540;23.496;2023-04-02T08:45:04;92738.56;;;16.79;47.47
35888;BME280;21990;42.540;23.496;2023-04-02T08:47:35;92738.56;;;16.79;48.65
35888;BME280;21990;42.540;23.496;2023-04-02T08:50:26;92743.03;;;16.72;45.36
35888;BME280;21990;42.540;23.496;2023-04-02T08:52:52;92738.63;;;16.61;47.26
35888;BME280;21990;42.540;23.496;2023-04-02T08:55:27;92744.31;;;16.61;45.74
35888;BME280;21990;42.540;23.496;2023-04-02T08:58:05;92730.72;;;16.60;46.37
35888;BME280;21990;42.540;23.496;2023-04-02T09:00:42;92745.56;;;16.68;47.47
35888;BME280;21990;42.540;23.496;2023-04-02T09:03:18;92738.75;;;16.90;50.55
35888;BME280;21990;42.540;23.496;2023-04-02T09:05:47;92745.56;;;17.14;47.19
35888;BME280;21990;42.540;23.496;2023-04-02T09:08:23;92738.97;;;17.21;46.11
35888;BME280;21990;42.540;23.496;2023-04-02T09:11:12;92733.00;;;17.36;45.37
35888;BME280;21990;42.540;23.496;2023-04-02T09:13:44;92736.06;;;17.58;47.09
35888;BME280;21990;42.540;23.496;2023-04-02T09:16:15;92734.41;;;17.74;46.05
35888;BME280;21990;42.540;23.496;2023-04-02T09:18:43;92732.88;;;17.82;43.72
35888;BME280;21990;42.540;23.496;2023-04-02T09:21:36;92737.25;;;17.74;47.25
35888;BME280;21990;42.540;23.496;2023-04-02T09:24:10;92736.34;;;17.81;46.87
35888;BME280;21990;42.540;23.496;2023-04-02T09:26:36;92733.34;;;17.88;47.79
35888;BME280;21990;42.540;23.496;2023-04-02T09:34:36;92736.34;;;17.90;46.42
35888;BME280;21990;42.540;23.496;2023-04-02T09:37:08;92727.03;;;17.71;46.78
35888;BME280;21990;42.540;23.496;2023-04-02T09:39:34;92737.22;;;17.45;44.72
35888;BME280;21990;42.540;23.496;2023-04-02T09:42:05;92743.03;;;17.37;46.57
35888;BME280;21990;42.540;23.496;2023-04-02T09:44:32;92734.63;;;17.11;46.19
35888;BME280;21990;42.540;23.496;2023-04-02T09:47:09;92735.16;;;16.90;47.67
35888;BME280;21990;42.540;23.496;2023-04-02T09:49:47;92736.31;;;16.77;47.49
35888;BME280;21990;42.540;23.496;2023-04-02T09:52:27;92736.53;;;16.62;46.35
35888;BME280;21990;42.540;23.496;2023-04-02T09:55:27;92736.06;;;16.56;46.52
35888;BME280;21990;42.540;23.496;2023-04-02T09:58:14;92740.03;;;16.43;47.49
35888;BME280;21990;42.540;23.496;2023-04-02T10:00:49;92730.50;;;16.22;45.16
35888;BME280;21990;42.540;23.496;2023-04-02T10:05:44;92724.59;;;15.83;48.79
35888;BME280;21990;42.540;23.496;2023-04-02T10:08:19;92714.47;;;16.17;45.64
35888;BME280;21990;42.540;23.496;2023-04-02T10:10:49;92716.00;;;16.27;46.03
35888;BME280;21990;42.540;23.496;2023-04-02T10:21:25;92698.97;;;16.27;45.33
35888;BME280;21990;42.540;23.496;2023-04-02T10:23:52;92707.66;;;16.29;45.85
35888;BME280;21990;42.540;23.496;2023-04-02T10:32:07;92701.13;;;16.73;44.09
35888;BME280;21990;42.540;23.496;2023-04-02T10:34:43;92693.91;;;16.35;43.99
35888;BME280;21990;42.540;23.496;2023-04-02T10:37:27;92703.00;;;16.24;45.35
35888;BME280;21990;42.540;23.496;2023-04-02T10:40:28;92712.28;;;16.25;43.29
35888;BME280;21990;42.540;23.496;2023-04-02T10:51:04;92713.75;;;15.72;46.61
35888;BME280;21990;42.540;23.496;2023-04-02T10:56:10;92717.78;;;15.96;43.09
35888;BME280;21990;42.540;23.496;2023-04-02T10:58:42;92720.94;;;16.00;42.84
35888;BME280;21990;42.540;23.496;2023-04-02T11:01:19;92710.34;;;16.00;42.19
35888;BME280;21990;42.540;23.496;2023-04-02T11:06:26;92702.44;;;16.35;42.81
35888;BME280;21990;42.540;23.496;2023-04-02T11:08:57;92693.91;;;16.35;40.16
35888;BME280;21990;42.540;23.496;2023-04-02T11:11:29;92691.06;;;16.35;41.33
35888;BME280;21990;42.540;23.496;2023-04-02T11:14:21;92695.25;;;16.34;41.70
35888;BME280;21990;42.540;23.496;2023-04-02T11:16:47;92693.66;;;16.41;42.45
35888;BME280;21990;42.540;23.496;2023-04-02T11:21:56;92696.28;;;16.29;41.35
35888;BME280;21990;42.540;23.496;2023-04-02T11:30:04;92686.00;;;16.34;42.26
35888;BME280;21990;42.540;23.496;2023-04-02T11:32:34;92683.81;;;16.51;44.75
35888;BME280;21990;42.540;23.496;2023-04-02T11:35:19;92690.16;;;16.69;43.04
35888;BME280;21990;42.540;23.496;2023-04-02T11:37:48;92681.53;;;16.77;41.16
35888;BME280;21990;42.540;23.496;2023-04-02T11:42:47;92669.97;;;16.65;39.09
35888;BME280;21990;42.540;23.496;2023-04-02T11:50:37;92667.63;;;17.09;41.33
35888;BME280;21990;42.540;23.496;2023-04-02T11:53:03;92664.66;;;17.27;42.00
35888;BME280;21990;42.540;23.496;2023-04-02T11:55:34;92677.69;;;17.39;43.30
35888;BME280;21990;42.540;23.496;2023-04-02T12:00:51;92673.19;;;17.55;41.68
35888;BME280;21990;42.540;23.496;2023-04-02T12:11:35;92658.81;;;17.53;40.59
35888;BME280;21990;42.540;23.496;2023-04-02T12:17:23;92662.97;;;17.04;40.31
35888;BME280;21990;42.540;23.496;2023-04-02T12:19:54;92660.59;;;16.91;41.46
35888;BME280;21990;42.540;23.496;2023-04-02T12:22:27;92661.63;;;16.77;41.97
35888;BME280;21990;42.540;23.496;2023-04-02T12:24:57;92662.47;;;16.60;41.28
35888;BME280;21990;42.540;23.496;2023-04-02T12:27:26;92666.91;;;16.53;42.08
35888;BME280;21990;42.540;23.496;2023-04-02T12:30:10;92657.72;;;16.36;43.13
35888;BME280;21990;42.540;23.496;2023-04-02T12:32:36;92657.97;;;16.30;41.99
35888;BME280;21990;42.540;23.496;2023-04-02T12:35:04;92664.31;;;16.11;43.28
35888;BME280;21990;42.540;23.496;2023-04-02T12:37:30;92669.47;;;15.96;43.90
35888;BME280;21990;42.540;23.496;2023-04-02T12:40:00;92672.31;;;15.96;44.44
35888;BME280;21990;42.540;23.496;2023-04-02T12:42:34;92670.97;;;15.87;45.11
35888;BME280;21990;42.540;23.496;2023-04-02T12:45:01;92677.78;;;15.84;45.30
35888;BME280;21990;42.540;23.496;2023-04-02T12:47:28;92667.41;;;15.96;46.02
35888;BME280;21990;42.540;23.496;2023-04-02T12:49:55;92654.31;;;16.10;44.07
35888;BME280;21990;42.540;23.496;2023-04-02T12:52:24;92652.41;;;16.23;45.48
35888;BME280;21990;42.540;23.496;2023-04-02T12:54:57;92653.53;;;16.37;45.04
35888;BME280;21990;42.540;23.496;2023-04-02T12:57:30;92655.53;;;16.53;44.69
35888;BME280;21990;42.540;23.496;2023-04-02T13:02:29;92658.53;;;16.55;42.56
35888;BME280;21990;42.540;23.496;2023-04-02T13:04:58;92659.28;;;16.56;42.93
35888;BME280;21990;42.540;23.496;2023-04-02T13:07:31;92656.78;;;16.60;42.31
35888;BME280;21990;42.540;23.496;2023-04-02T13:10:20;92646.91;;;16.71;43.22
35888;BME280;21990;42.540;23.496;2023-04-02T13:12:47;92658.28;;;16.71;42.05
35888;BME280;21990;42.540;23.496;2023-04-02T13:15:22;92647.78;;;16.64;43.51
35888;BME280;21990;42.540;23.496;2023-04-02T13:18:17;92653.63;;;16.66;42.80
35888;BME280;21990;42.540;23.496;2023-04-02T13:21:04;92636.72;;;16.68;43.96
35888;BME280;21990;42.540;23.496;2023-04-02T13:23:33;92643.63;;;16.74;43.32
35888;BME280;21990;42.540;23.496;2023-04-02T13:28:33;92643.44;;;16.63;42.43
35888;BME280;21990;42.540;23.496;2023-04-02T13:30:58;92643.00;;;16.56;43.17
35888;BME280;21990;42.540;23.496;2023-04-02T13:33:24;92650.91;;;16.58;42.53
35888;BME280;21990;42.540;23.496;2023-04-02T13:35:50;92636.72;;;16.68;41.89
35888;BME280;21990;42.540;23.496;2023-04-02T13:38:15;92646.31;;;16.72;43.14
35888;BME280;21990;42.540;23.496;2023-04-02T13:40:41;92641.69;;;16.77;43.01
35888;BME280;21990;42.540;23.496;2023-04-02T13:43:09;92645.88;;;16.85;43.08
35888;BME280;21990;42.540;23.496;2023-04-02T13:45:40;92641.53;;;16.75;41.74
35888;BME280;21990;42.540;23.496;2023-04-02T13:48:13;92648.47;;;16.54;42.13
35888;BME280;21990;42.540;23.496;2023-04-02T13:50:39;92647.72;;;16.44;42.20
35888;BME280;21990;42.540;23.496;2023-04-02T13:53:07;92646.66;;;16.40;41.67
35888;BME280;21990;42.540;23.496;2023-04-02T13:55:39;92638.50;;;16.27;42.61
35888;BME280;21990;42.540;23.496;2023-04-02T13:58:06;92651.69;;;16.22;42.09
35888;BME280;21990;42.540;23.496;2023-04-02T14:00:38;92649.66;;;16.05;42.46
35888;BME280;21990;42.540;23.496;2023-04-02T14:03:17;92650.03;;;15.92;43.93
35888;BME280;21990;42.540;23.496;2023-04-02T14:06:19;92650.56;;;16.08;43.58
35888;BME280;21990;42.540;23.496;2023-04-02T14:09:19;92648.47;;;16.08;42.48
35888;BME280;21990;42.540;23.496;2023-04-02T14:26:12;92646.41;;;15.82;43.05
35888;BME280;21990;42.540;23.496;2023-04-02T14:31:59;92649.06;;;15.80;42.39
35888;BME280;21990;42.540;23.496;2023-04-02T14:40:07;92641.19;;;15.88;41.86
35888;BME280;21990;42.540;23.496;2023-04-02T14:47:36;92637.75;;;15.90;43.17
35888;BME280;21990;42.540;23.496;2023-04-02T14:50:17;92637.59;;;15.88;42.45
35888;BME280;21990;42.540;23.496;2023-04-02T14:52:46;92626.72;;;15.94;42.63
35888;BME280;21990;42.540;23.496;2023-04-02T14:55:32;92634.69;;;16.05;42.58
35888;BME280;21990;42.540;23.496;2023-04-02T14:58:03;92639.75;;;15.97;42.70
35888;BME280;21990;42.540;23.496;2023-04-02T15:00:39;92648.69;;;15.93;42.84
35888;BME280;21990;42.540;23.496;2023-04-02T15:03:17;92646.72;;;15.86;43.31
35888;BME280;21990;42.540;23.496;2023-04-02T15:05:46;92650.03;;;15.92;43.29
35888;BME280;21990;42.540;23.496;2023-04-02T15:09:04;92647.94;;;15.93;44.01
35888;BME280;21990;42.540;23.496;2023-04-02T15:11:22;92654.38;;;15.93;44.17
35888;BME280;21990;42.540;23.496;2023-04-02T15:16:37;92644.78;;;15.89;45.07
35888;BME280;21990;42.540;23.496;2023-04-02T15:19:12;92646.41;;;15.82;44.63
35888;BME280;21990;42.540;23.496;2023-04-02T15:40:50;92672.44;;;15.44;47.08
35888;BME280;21990;42.540;23.496;2023-04-02T15:55:21;92675.38;;;15.19;48.60
35888;BME280;21990;42.540;23.496;2023-04-02T16:00:45;92672.38;;;15.00;48.97
35888;BME280;21990;42.540;23.496;2023-04-02T16:03:59;92682.47;;;14.94;48.53
35888;BME280;21990;42.540;23.496;2023-04-02T16:06:27;92679.28;;;14.90;48.55
35888;BME280;21990;42.540;23.496;2023-04-02T16:09:16;92678.53;;;14.89;49.17
35888;BME280;21990;42.540;23.496;2023-04-02T16:11:50;92675.03;;;14.81;49.61
35888;BME280;21990;42.540;23.496;2023-04-02T16:14:24;92678.28;;;14.78;50.72
35888;BME280;21990;42.540;23.496;2023-04-02T16:16:53;92680.78;;;14.73;50.24
35888;BME280;21990;42.540;23.496;2023-04-02T16:21:55;92687.38;;;14.51;52.34
35888;BME280;21990;42.540;23.496;2023-04-02T16:24:23;92684.69;;;14.36;53.67
35888;BME280;21990;42.540;23.496;2023-04-02T16:35:20;92680.34;;;13.78;54.54
35888;BME280;21990;42.540;23.496;2023-04-02T16:37:50;92691.53;;;13.68;54.88
35888;BME280;21990;42.540;23.496;2023-04-02T16:48:42;92696.88;;;13.09;55.35
35888;BME280;21990;42.540;23.496;2023-04-02T16:51:13;92699.53;;;12.92;55.66
35888;BME280;21990;42.540;23.496;2023-04-02T16:54:04;92710.69;;;12.82;56.77
35888;BME280;21990;42.540;23.496;2023-04-02T17:04:51;92722.06;;;12.37;58.94
35888;BME280;21990;42.540;23.496;2023-04-02T17:07:34;92727.88;;;12.24;59.36
35888;BME280;21990;42.540;23.496;2023-04-02T17:10:44;92723.53;;;12.00;59.94
35888;BME280;21990;42.540;23.496;2023-04-02T17:13:41;92734.06;;;11.92;60.81
35888;BME280;21990;42.540;23.496;2023-04-02T17:16:17;92728.00;;;11.73;60.35
35888;BME280;21990;42.540;23.496;2023-04-02T17:18:50;92735.63;;;11.57;60.54
35888;BME280;21990;42.540;23.496;2023-04-02T17:21:28;92730.53;;;11.56;60.08
35888;BME280;21990;42.540;23.496;2023-04-02T17:24:15;92740.09;;;11.45;61.69
35888;BME280;21990;42.540;23.496;2023-04-02T17:26:50;92745.13;;;11.31;60.84
35888;BME280;21990;42.540;23.496;2023-04-02T17:30:01;92752.97;;;11.18;61.33
35888;BME280;21990;42.540;23.496;2023-04-02T17:32:25;92764.59;;;11.14;61.74
35888;BME280;21990;42.540;23.496;2023-04-02T17:34:51;92766.97;;;11.03;60.41
35888;BME280;21990;42.540;23.496;2023-04-02T17:37:26;92775.75;;;10.91;61.27
35888;BME280;21990;42.540;23.496;2023-04-02T17:40:07;92771.59;;;10.85;62.62
35888;BME280;21990;42.540;23.496;2023-04-02T17:48:04;92789.28;;;10.65;62.25
35888;BME280;21990;42.540;23.496;2023-04-02T17:53:18;92782.38;;;10.45;63.32
35888;BME280;21990;42.540;23.496;2023-04-02T17:56:36;92786.91;;;10.27;64.54